createdAt,value
2019-04-27T00:01:57.727Z,11.38
2019-04-27T00:04:28.151Z,16.02
2019-04-27T00:07:02.872Z,12.18
2019-04-27T00:09:34.046Z,10.30
2019-04-27T00:12:16.424Z,10.35
2019-04-27T00:14:43.932Z,9.60
2019-04-27T00:17:14.528Z,9.43
2019-04-27T00:19:50.653Z,9.48
2019-04-27T00:22:23.668Z,9.80
2019-04-27T00:24:55.128Z,9.73
2019-04-27T00:27:23.921Z,10.88
2019-04-27T00:29:53.524Z,10.13
2019-04-27T00:32:23.141Z,10.38
2019-04-27T00:34:53.153Z,10.50
2019-04-27T00:37:35.500Z,10.60
2019-04-27T00:40:07.425Z,9.83
2019-04-27T00:42:36.225Z,10.50
2019-04-27T00:45:06.293Z,9.48
2019-04-27T00:47:35.194Z,10.43
2019-04-27T00:50:06.115Z,10.93
2019-04-27T00:52:34.813Z,9.85
2019-04-27T00:55:04.804Z,10.28
2019-04-27T00:57:34.874Z,10.45
2019-04-27T01:00:18.757Z,10.38
2019-04-27T01:02:48.833Z,11.35
2019-04-27T01:05:19.214Z,10.10
2019-04-27T01:07:48.004Z,10.58
2019-04-27T01:10:17.101Z,10.13
2019-04-27T01:12:45.803Z,11.20
2019-04-27T01:15:14.254Z,12.05
2019-04-27T01:17:42.688Z,11.60
2019-04-27T01:20:11.556Z,10.95
2019-04-27T01:22:40.002Z,12.37
2019-04-27T01:25:08.870Z,11.80
2019-04-27T01:27:55.634Z,12.85
2019-04-27T01:30:25.715Z,12.13
2019-04-27T01:32:54.154Z,12.47
2019-04-27T01:35:22.612Z,12.53
2019-04-27T01:37:51.126Z,13.15
2019-04-27T01:40:19.918Z,13.15
2019-04-27T01:42:48.427Z,12.35
2019-04-27T01:45:18.702Z,14.18
2019-04-27T01:47:47.253Z,13.13
2019-04-27T01:50:15.714Z,14.05
2019-04-27T01:52:44.146Z,13.18
2019-04-27T01:55:12.741Z,14.85
2019-04-27T01:57:41.473Z,14.10
2019-04-27T02:00:29.862Z,14.45
2019-04-27T02:02:59.990Z,15.90
2019-04-27T02:05:33.129Z,18.42
2019-04-27T02:08:01.714Z,16.35
2019-04-27T02:10:30.510Z,20.00
2019-04-27T02:12:59.410Z,16.42
2019-04-27T02:15:29.342Z,18.77
2019-04-27T02:17:59.640Z,16.87
2019-04-27T02:20:28.269Z,18.05
2019-04-27T02:22:58.816Z,16.77
2019-04-27T02:25:29.335Z,16.65
2019-04-27T02:27:59.719Z,17.85
2019-04-27T02:30:46.343Z,18.23
2019-04-27T02:33:33.147Z,18.52
2019-04-27T02:36:02.047Z,20.57
2019-04-27T02:38:30.786Z,18.90
2019-04-27T02:41:00.489Z,21.35
2019-04-27T02:43:40.083Z,18.60
2019-04-27T02:46:09.698Z,19.05
2019-04-27T02:48:54.029Z,20.37
2019-04-27T02:51:11.005Z,20.37
2019-04-27T02:54:00.109Z,19.70
2019-04-27T02:56:30.525Z,18.37
2019-04-27T02:58:59.649Z,22.22
2019-04-27T03:01:30.736Z,20.02
2019-04-27T03:04:00.293Z,21.80
2019-04-27T03:06:30.152Z,21.05
2019-04-27T03:09:00.407Z,20.20
2019-04-27T03:11:30.769Z,18.60
2019-04-27T03:14:04.703Z,22.22
2019-04-27T03:16:34.846Z,22.60
2019-04-27T03:19:14.801Z,21.02
2019-04-27T03:21:53.184Z,21.70
2019-04-27T03:24:23.268Z,22.75
2019-04-27T03:26:53.764Z,21.57
2019-04-27T03:29:23.037Z,20.88
2019-04-27T03:31:53.877Z,21.87
2019-04-27T03:34:22.655Z,19.37
2019-04-27T03:36:51.624Z,19.40
2019-04-27T03:39:20.702Z,19.40
2019-04-27T03:41:50.228Z,19.48
2019-04-27T03:44:19.424Z,20.57
2019-04-27T03:46:49.633Z,21.57
2019-04-27T03:49:29.423Z,20.32
2019-04-27T03:52:06.459Z,21.07
2019-04-27T03:54:45.738Z,24.43
2019-04-27T03:57:19.908Z,21.87
2019-04-27T03:59:59.866Z,20.45
2019-04-27T04:02:30.227Z,22.02
2019-04-27T04:04:59.890Z,23.47
2019-04-27T04:07:30.025Z,19.98
2019-04-27T04:10:00.198Z,21.17
2019-04-27T04:12:30.719Z,19.23
2019-04-27T04:14:59.832Z,19.52
2019-04-27T04:17:30.849Z,20.95
2019-04-27T04:20:01.860Z,19.52
2019-04-27T04:22:30.658Z,19.67
2019-04-27T04:24:59.904Z,18.60
2019-04-27T04:27:29.895Z,17.98
2019-04-27T04:29:59.484Z,20.75
2019-04-27T04:32:29.828Z,19.35
2019-04-27T04:35:13.754Z,18.55
2019-04-27T04:37:42.194Z,17.25
2019-04-27T04:40:11.013Z,18.62
2019-04-27T04:42:41.433Z,18.67
2019-04-27T04:45:14.540Z,16.15
2019-04-27T04:47:54.177Z,18.25
2019-04-27T04:50:22.987Z,17.00
2019-04-27T04:52:51.483Z,16.15
2019-04-27T04:55:20.580Z,16.40
2019-04-27T04:57:49.512Z,20.50
2019-04-27T05:00:19.934Z,18.35
2019-04-27T05:02:49.223Z,19.02
2019-04-27T05:05:19.335Z,18.32
2019-04-27T05:07:48.603Z,19.30
2019-04-27T05:10:18.849Z,17.37
2019-04-27T05:12:48.630Z,16.42
2019-04-27T05:15:19.050Z,18.98
2019-04-27T05:17:48.401Z,18.50
2019-04-27T05:20:24.381Z,16.80
2019-04-27T05:22:49.769Z,18.10
2019-04-27T05:25:18.665Z,15.83
2019-04-27T05:27:49.273Z,15.18
2019-04-27T05:30:19.561Z,15.70
2019-04-27T05:32:49.566Z,14.33
2019-04-27T05:35:19.421Z,15.00
2019-04-27T05:37:49.206Z,16.10
2019-04-27T05:40:18.953Z,14.45
2019-04-27T05:42:50.535Z,15.48
2019-04-27T05:46:03.646Z,14.73
2019-04-27T05:48:33.748Z,15.35
2019-04-27T05:51:02.566Z,13.95
2019-04-27T05:53:31.031Z,13.08
2019-04-27T05:55:59.580Z,12.98
2019-04-27T05:58:29.003Z,12.75
2019-04-27T06:00:59.479Z,12.63
2019-04-27T06:03:29.624Z,13.08
2019-04-27T06:06:01.388Z,13.45
2019-04-27T06:08:29.462Z,13.68
2019-04-27T06:10:59.262Z,11.60
2019-04-27T06:13:30.393Z,10.75
2019-04-27T06:15:59.280Z,10.35
2019-04-27T06:18:29.463Z,9.80
2019-04-27T06:20:59.697Z,9.10
2019-04-27T06:23:28.953Z,9.63
2019-04-27T06:25:57.802Z,8.65
2019-04-27T06:28:26.474Z,8.63
2019-04-27T06:30:54.907Z,8.88
2019-04-27T06:33:31.977Z,8.88
2019-04-27T06:35:54.021Z,9.18
2019-04-27T06:38:22.469Z,8.90
2019-04-27T06:40:50.929Z,8.05
2019-04-27T06:43:19.511Z,7.62
2019-04-27T06:45:48.823Z,7.35
2019-04-27T06:48:19.411Z,7.30
2019-04-27T06:50:50.204Z,7.92
2019-04-27T06:53:19.137Z,7.30
2019-04-27T06:55:49.674Z,7.67
2019-04-27T06:58:19.948Z,7.30
2019-04-27T07:00:49.717Z,6.62
2019-04-27T07:03:18.959Z,7.67
2019-04-27T07:05:48.683Z,7.45
2019-04-27T07:08:18.603Z,7.12
2019-04-27T07:10:48.996Z,7.67
2019-04-27T07:13:19.424Z,7.42
2019-04-27T07:15:48.543Z,7.62
2019-04-27T07:18:18.674Z,6.47
2019-04-27T07:20:48.532Z,5.97
2019-04-27T07:23:18.706Z,7.08
2019-04-27T07:25:48.790Z,5.85
2019-04-27T07:28:18.960Z,5.97
2019-04-27T07:30:48.781Z,5.67
2019-04-27T07:33:18.585Z,5.30
2019-04-27T07:35:48.942Z,5.30
2019-04-27T07:38:19.213Z,5.75
2019-04-27T07:40:48.882Z,5.25
2019-04-27T07:43:25.426Z,5.95
2019-04-27T07:45:53.880Z,6.37
2019-04-27T07:48:22.322Z,5.25
2019-04-27T07:50:50.782Z,4.65
2019-04-27T07:53:19.581Z,6.30
2019-04-27T07:55:49.508Z,6.17
2019-04-27T07:58:20.546Z,6.17
2019-04-27T08:00:49.193Z,5.03
2019-04-27T08:03:19.623Z,5.22
2019-04-27T08:05:49.109Z,5.08
2019-04-27T08:08:18.980Z,5.80
2019-04-27T08:10:50.023Z,3.87
2019-04-27T08:13:19.383Z,5.83
2019-04-27T08:15:49.628Z,4.78
2019-04-27T08:18:19.006Z,3.87
2019-04-27T08:20:49.090Z,3.60
2019-04-27T08:23:19.426Z,4.28
2019-04-27T08:25:48.938Z,3.17
2019-04-27T08:28:38.655Z,4.90
2019-04-27T08:31:14.549Z,5.12
2019-04-27T08:33:42.986Z,6.72
2019-04-27T08:36:11.558Z,3.85
2019-04-27T08:38:40.322Z,4.15
2019-04-27T08:41:09.042Z,5.10
2019-04-27T08:43:38.999Z,4.00
2019-04-27T08:46:08.730Z,4.80
2019-04-27T08:48:39.287Z,5.95
2019-04-27T08:51:09.401Z,4.20
2019-04-27T08:53:39.631Z,5.12
2019-04-27T08:56:09.392Z,7.60
2019-04-27T08:58:38.668Z,5.40
2019-04-27T09:01:09.976Z,7.28
2019-04-27T09:03:39.509Z,4.58
2019-04-27T09:06:09.577Z,4.35
2019-04-27T09:08:41.246Z,4.05
2019-04-27T09:11:18.949Z,5.33
2019-04-27T09:14:05.381Z,3.58
2019-04-27T09:16:59.641Z,5.30
2019-04-27T09:19:34.525Z,2.40
2019-04-27T09:22:13.443Z,1.77
2019-04-27T09:24:34.945Z,1.95
2019-04-27T09:27:04.877Z,1.17
2019-04-27T09:29:33.469Z,1.15
2019-04-27T09:32:02.543Z,2.00
2019-04-27T09:34:31.343Z,1.92
2019-04-27T09:37:00.132Z,1.87
2019-04-27T09:39:28.595Z,1.75
2019-04-27T09:41:57.322Z,2.17
2019-04-27T09:44:26.658Z,1.80
2019-04-27T09:46:56.077Z,1.72
2019-04-27T09:49:26.276Z,2.02
2019-04-27T09:51:55.766Z,2.33
2019-04-27T09:54:27.215Z,1.72
2019-04-27T09:56:56.204Z,1.60
2019-04-27T09:59:26.441Z,1.60
2019-04-27T10:01:55.561Z,5.12
2019-04-27T10:04:26.359Z,1.47
2019-04-27T10:06:56.915Z,1.62
2019-04-27T10:09:26.358Z,1.82
2019-04-27T10:11:55.133Z,1.42
2019-04-27T10:14:23.593Z,1.20
2019-04-27T10:16:52.029Z,0.90
2019-04-27T10:19:28.744Z,1.10
2019-04-27T10:21:50.939Z,0.90
2019-04-27T10:24:19.396Z,0.98
2019-04-27T10:26:47.821Z,2.60
2019-04-27T10:29:16.276Z,1.50
2019-04-27T10:31:46.067Z,0.98
2019-04-27T10:34:14.898Z,2.00
2019-04-27T10:36:43.341Z,2.67
2019-04-27T10:39:13.721Z,1.20
2019-04-27T10:41:42.395Z,1.20
2019-04-27T10:44:11.162Z,1.50
2019-04-27T10:46:39.668Z,2.77
2019-04-27T10:49:08.458Z,0.78
2019-04-27T10:51:36.907Z,1.25
2019-04-27T10:54:06.267Z,1.52
2019-04-27T10:56:36.173Z,1.15
2019-04-27T10:59:07.211Z,1.15
2019-04-27T11:01:36.496Z,1.77
2019-04-27T11:04:26.060Z,3.33
2019-04-27T11:06:58.869Z,2.52
2019-04-27T11:09:27.453Z,1.45
2019-04-27T11:11:57.257Z,0.82
2019-04-27T11:14:26.180Z,1.20
2019-04-27T11:16:56.050Z,0.93
2019-04-27T11:19:26.654Z,2.77
2019-04-27T11:21:55.186Z,3.12
2019-04-27T11:24:23.625Z,1.40
2019-04-27T11:26:52.465Z,1.05
2019-04-27T11:29:20.911Z,1.27
2019-04-27T11:31:49.355Z,1.10
2019-04-27T11:34:18.770Z,1.27
2019-04-27T11:36:55.473Z,1.60
2019-04-27T11:39:26.020Z,2.40
2019-04-27T11:41:54.847Z,4.47
2019-04-27T11:44:23.639Z,1.55
2019-04-27T11:46:52.086Z,1.20
2019-04-27T11:49:20.538Z,1.20
2019-04-27T11:51:48.976Z,1.50
2019-04-27T11:54:17.787Z,2.95
2019-04-27T11:56:47.227Z,1.82
2019-04-27T11:59:15.979Z,2.55
2019-04-27T12:01:45.955Z,1.40
2019-04-27T12:04:16.123Z,2.00
2019-04-27T12:06:46.280Z,1.62
2019-04-27T12:09:15.149Z,1.87
2019-04-27T12:11:43.591Z,1.50
2019-04-27T12:14:12.330Z,1.60
2019-04-27T12:16:41.121Z,2.55
2019-04-27T12:19:09.916Z,2.60
2019-04-27T12:21:38.618Z,2.35
2019-04-27T12:24:07.498Z,1.80
2019-04-27T12:26:37.589Z,3.47
2019-04-27T12:29:07.666Z,3.98
2019-04-27T12:31:43.854Z,2.92
2019-04-27T12:34:11.405Z,2.15
2019-04-27T12:36:39.862Z,3.25
2019-04-27T12:39:11.117Z,3.67
2019-04-27T12:41:39.976Z,2.02
2019-04-27T12:44:08.969Z,3.92
2019-04-27T12:46:37.597Z,3.08
2019-04-27T12:49:06.394Z,3.37
2019-04-27T12:51:35.604Z,3.10
2019-04-27T12:57:41.180Z,4.35
2019-04-27T13:00:11.437Z,2.55
2019-04-27T13:02:39.934Z,3.20
2019-04-27T13:05:09.119Z,4.03
2019-04-27T13:07:37.550Z,2.58
2019-04-27T13:10:08.757Z,2.90
2019-04-27T13:12:37.561Z,2.77
2019-04-27T13:15:08.493Z,3.10
2019-04-27T13:17:37.298Z,3.10
2019-04-27T13:20:07.613Z,4.35
2019-04-27T13:22:37.237Z,4.15
2019-04-27T13:25:07.979Z,4.37
2019-04-27T13:27:36.789Z,2.98
2019-04-27T13:30:07.659Z,3.20
2019-04-27T13:32:39.169Z,2.92
2019-04-27T13:35:08.253Z,5.22
2019-04-27T13:37:40.833Z,4.25
2019-04-27T13:40:10.517Z,1.98
2019-04-27T13:42:57.244Z,2.75
2019-04-27T13:45:27.693Z,2.98
2019-04-27T13:47:57.785Z,3.60
2019-04-27T13:50:40.117Z,8.50
2019-04-27T13:53:08.577Z,3.27
2019-04-27T13:55:37.005Z,3.55
2019-04-27T13:58:05.780Z,9.25
2019-04-27T14:00:34.833Z,5.87
2019-04-27T14:03:05.154Z,3.87
2019-04-27T14:05:34.002Z,3.70
2019-04-27T14:08:02.511Z,3.45
2019-04-27T14:10:30.966Z,2.85
2019-04-27T14:12:59.409Z,2.45
2019-04-27T14:15:28.872Z,4.62
2019-04-27T14:17:59.187Z,3.25
2019-04-27T14:20:28.730Z,2.47
2019-04-27T14:23:11.414Z,5.10
2019-04-27T14:25:39.875Z,6.10
2019-04-27T14:28:08.649Z,4.42
2019-04-27T14:30:38.117Z,6.35
2019-04-27T14:33:08.482Z,9.83
2019-04-27T14:35:37.143Z,3.72
2019-04-27T14:38:05.580Z,3.55
2019-04-27T14:40:34.298Z,3.12
2019-04-27T14:43:02.748Z,2.40
2019-04-27T14:45:31.478Z,1.80
2019-04-27T14:47:59.934Z,2.17
2019-04-27T14:50:28.694Z,4.53
2019-04-27T14:52:58.883Z,2.40
2019-04-27T14:55:28.273Z,1.75
2019-04-27T14:57:58.641Z,2.45
2019-04-27T15:00:28.803Z,4.42
2019-04-27T15:02:59.136Z,1.40
2019-04-27T15:05:28.170Z,1.98
2019-04-27T15:07:56.675Z,2.77
2019-04-27T15:10:27.056Z,3.25
2019-04-27T15:12:55.727Z,4.05
2019-04-27T15:15:24.182Z,4.40
2019-04-27T15:17:52.625Z,9.25
2019-04-27T15:20:30.658Z,3.50
2019-04-27T15:23:00.127Z,5.78
2019-04-27T15:25:35.028Z,3.12
2019-04-27T15:28:01.423Z,3.45
2019-04-27T15:30:48.439Z,2.75
2019-04-27T15:33:34.566Z,3.15
2019-04-27T15:36:14.596Z,1.30
2019-04-27T15:38:47.009Z,4.50
2019-04-27T15:41:30.452Z,4.22
2019-04-27T15:44:01.320Z,2.50
2019-04-27T15:46:33.578Z,2.47
2019-04-27T15:48:58.923Z,2.75
2019-04-27T15:51:28.290Z,3.47
2019-04-27T15:53:58.684Z,3.37
2019-04-27T15:56:30.472Z,4.40
2019-04-27T15:59:00.016Z,3.50
2019-04-27T16:01:29.715Z,4.30
2019-04-27T16:03:58.404Z,3.40
2019-04-27T16:06:28.742Z,2.92
2019-04-27T16:08:58.942Z,3.87
2019-04-27T16:11:27.610Z,3.15
2019-04-27T16:13:56.087Z,3.27
2019-04-27T16:16:29.200Z,4.12
2019-04-27T16:18:55.473Z,4.03
2019-04-27T16:21:31.506Z,3.37
2019-04-27T16:24:00.327Z,4.62
2019-04-27T16:26:29.130Z,4.70
2019-04-27T16:28:58.065Z,4.75
2019-04-27T16:31:31.499Z,4.35
2019-04-27T16:33:59.246Z,5.47
2019-04-27T16:36:28.845Z,6.35
2019-04-27T16:39:03.590Z,8.65
2019-04-27T16:41:32.964Z,4.83
2019-04-27T16:44:06.728Z,4.40
2019-04-27T16:46:34.845Z,5.28
2019-04-27T16:49:07.391Z,4.45
2019-04-27T16:51:36.965Z,5.00
2019-04-27T16:54:04.462Z,2.83
2019-04-27T16:56:33.214Z,5.78
2019-04-27T16:59:20.784Z,3.37
2019-04-27T17:01:32.328Z,4.08
2019-04-27T17:04:00.838Z,2.77
2019-04-27T17:06:29.840Z,3.77
2019-04-27T17:09:05.461Z,3.85
2019-04-27T17:11:29.825Z,5.75
2019-04-27T17:14:15.442Z,4.78
2019-04-27T17:16:45.915Z,3.92
2019-04-27T17:19:16.009Z,4.22
2019-04-27T17:21:44.736Z,4.37
2019-04-27T17:24:15.154Z,3.65
2019-04-27T17:26:43.801Z,3.20
2019-04-27T17:29:16.264Z,2.77
2019-04-27T17:31:46.185Z,1.85
2019-04-27T17:34:18.379Z,2.77
2019-04-27T17:36:48.478Z,3.87
2019-04-27T17:39:19.244Z,4.78
2019-04-27T17:41:49.126Z,3.85
2019-04-27T17:44:19.190Z,2.45
2019-04-27T17:46:47.661Z,5.80
2019-04-27T17:49:18.904Z,2.20
2019-04-27T17:51:48.420Z,2.87
2019-04-27T17:54:18.172Z,3.52
2019-04-27T17:56:49.567Z,2.47
2019-04-27T17:59:20.690Z,2.42
2019-04-27T18:01:49.463Z,3.25
2019-04-27T18:04:18.538Z,3.47
2019-04-27T18:06:48.371Z,3.22
2019-04-27T18:09:18.750Z,2.02
2019-04-27T18:11:49.925Z,3.67
2019-04-27T18:14:19.243Z,3.72
2019-04-27T18:16:48.364Z,3.45
2019-04-27T18:19:28.282Z,3.00
2019-04-27T18:22:00.859Z,5.65
2019-04-27T18:24:30.398Z,8.13
2019-04-27T18:27:04.512Z,10.58
2019-04-27T18:29:33.021Z,6.37
2019-04-27T18:32:01.926Z,6.33
2019-04-27T18:34:30.407Z,5.53
2019-04-27T18:36:59.179Z,6.83
2019-04-27T18:39:27.607Z,5.35
2019-04-27T18:41:56.067Z,3.15
2019-04-27T18:44:30.539Z,3.60
2019-04-27T18:46:58.797Z,4.33
2019-04-27T18:49:30.343Z,4.58
2019-04-27T18:52:08.704Z,5.62
2019-04-27T18:54:38.359Z,3.22
2019-04-27T18:57:10.903Z,2.25
2019-04-27T18:59:38.090Z,4.72
2019-04-27T19:02:08.476Z,5.30
2019-04-27T19:04:37.098Z,3.87
2019-04-27T19:07:05.670Z,3.62
2019-04-27T19:09:34.122Z,2.15
2019-04-27T19:12:02.568Z,3.70
2019-04-27T19:14:31.011Z,2.50
2019-04-27T19:16:59.447Z,3.72
2019-04-27T19:19:28.218Z,3.47
2019-04-27T19:21:58.765Z,5.30
2019-04-27T19:24:28.179Z,2.10
2019-04-27T19:26:58.816Z,3.00
2019-04-27T19:29:29.313Z,3.17
2019-04-27T19:31:59.741Z,3.00
2019-04-27T19:34:28.620Z,4.67
2019-04-27T19:36:59.087Z,2.80
2019-04-27T19:39:28.620Z,3.50
2019-04-27T19:42:01.490Z,2.98
2019-04-27T19:44:29.174Z,2.00
2019-04-27T19:46:59.952Z,1.60
2019-04-27T19:49:31.279Z,1.52
2019-04-27T19:51:58.885Z,2.33
2019-04-27T19:54:29.862Z,1.50
2019-04-27T19:56:59.528Z,1.57
2019-04-27T19:59:29.587Z,1.72
2019-04-27T20:01:59.806Z,2.02
2019-04-27T20:04:35.410Z,2.40
2019-04-27T20:07:03.974Z,2.22
2019-04-27T20:09:34.362Z,3.75
2019-04-27T20:12:05.063Z,2.52
2019-04-27T20:14:34.974Z,2.45
2019-04-27T20:17:03.488Z,2.65
2019-04-27T20:19:32.397Z,3.35
2019-04-27T20:22:01.190Z,2.70
2019-04-27T20:24:31.098Z,2.62
2019-04-27T20:27:00.675Z,3.20
2019-04-27T20:29:31.720Z,2.72
2019-04-27T20:32:01.206Z,1.50
2019-04-27T20:34:31.062Z,1.52
2019-04-27T20:37:01.287Z,3.12
2019-04-27T20:39:30.241Z,4.22
2019-04-27T20:41:58.678Z,2.08
2019-04-27T20:44:27.106Z,2.58
2019-04-27T20:46:55.697Z,2.85
2019-04-27T20:49:24.467Z,4.58
2019-04-27T20:51:54.579Z,3.92
2019-04-27T20:54:23.479Z,2.17
2019-04-27T20:56:53.962Z,1.72
2019-04-27T20:59:22.810Z,2.17
2019-04-27T21:01:51.602Z,2.17
2019-04-27T21:04:22.036Z,1.65
2019-04-27T21:06:52.462Z,3.08
2019-04-27T21:09:21.383Z,1.72
2019-04-27T21:11:50.258Z,2.05
2019-04-27T21:14:19.046Z,1.77
2019-04-27T21:16:48.145Z,2.98
2019-04-27T21:19:16.594Z,2.67
2019-04-27T21:21:45.036Z,2.25
2019-04-27T21:24:13.833Z,1.98
2019-04-27T21:26:42.333Z,5.00
2019-04-27T21:29:11.672Z,2.95
2019-04-27T21:31:41.818Z,2.05
2019-04-27T21:34:10.445Z,2.35
2019-04-27T21:36:40.864Z,2.85
2019-04-27T21:39:09.206Z,4.22
2019-04-27T21:41:37.649Z,2.45
2019-04-27T21:44:06.407Z,3.12
2019-04-27T21:46:34.993Z,3.45
2019-04-27T21:49:03.468Z,2.77
2019-04-27T21:51:34.117Z,2.80
2019-04-27T21:54:10.383Z,3.75
2019-04-27T21:56:38.830Z,3.40
2019-04-27T21:59:07.312Z,2.35
2019-04-27T22:01:36.248Z,2.20
2019-04-27T22:04:05.090Z,2.58
2019-04-27T22:06:33.542Z,2.50
2019-04-27T22:09:02.323Z,3.80
2019-04-27T22:11:31.933Z,1.95
2019-04-27T22:14:01.358Z,2.85
2019-04-27T22:16:31.512Z,2.35
2019-04-27T22:19:01.792Z,2.75
2019-04-27T22:21:31.673Z,2.87
2019-04-27T22:24:05.080Z,2.67
2019-04-27T22:26:33.509Z,2.80
2019-04-27T22:29:02.038Z,2.83
2019-04-27T22:31:31.327Z,2.10
2019-04-27T22:34:01.808Z,2.98
2019-04-27T22:36:30.386Z,3.33
2019-04-27T22:39:01.590Z,4.05
2019-04-27T22:41:32.086Z,5.28
2019-04-27T22:44:02.242Z,3.17
2019-04-27T22:46:35.113Z,2.30
2019-04-27T22:49:03.637Z,3.10
2019-04-27T22:51:32.069Z,1.98
2019-04-27T22:54:01.331Z,1.72
2019-04-27T22:56:32.132Z,3.12
2019-04-27T22:59:14.636Z,2.25
2019-04-27T23:02:01.568Z,3.90
2019-04-27T23:04:32.577Z,2.00
2019-04-27T23:07:02.768Z,2.83
2019-04-27T23:09:31.410Z,2.17
2019-04-27T23:12:01.703Z,3.20
2019-04-27T23:14:31.298Z,1.90
2019-04-27T23:17:03.167Z,2.70
2019-04-27T23:19:31.802Z,2.33
2019-04-27T23:22:00.759Z,2.35
2019-04-27T23:24:30.985Z,2.22
2019-04-27T23:26:59.589Z,1.30
2019-04-27T23:29:28.019Z,1.17
2019-04-27T23:32:01.651Z,2.80
2019-04-27T23:34:31.524Z,2.87
2019-04-27T23:37:00.065Z,3.42
2019-04-27T23:39:28.519Z,2.70
2019-04-27T23:41:57.258Z,1.98
2019-04-27T23:44:25.776Z,1.52
2019-04-27T23:46:54.212Z,2.50
2019-04-27T23:49:22.664Z,3.10
2019-04-27T23:51:55.411Z,1.90
2019-04-27T23:54:23.857Z,1.40
2019-04-27T23:56:52.578Z,1.07
2019-04-27T23:59:24.965Z,2.72
